• Join FlightAware (Why Join?)
  • Login
  • US Flag 
05:00AM EST


 

Airport Tracker/Info


-or-


 

Live Flight TrackerFlight Track Log ✈ BOE5 ✈ 24-Apr-2013 ✈ KABQ - PHTO / ITO

Flight Track Log - Related Links

Times and Time Zones

All times are in EDT time to prevent confusion due to time zone crossing. See the BOE5 flight status page for this flight to view local times or setup timezone preferences in your user account.

Time Position Orientation Groundspeed Altitude Reporting Facility
EDT Latitude Longitude Course Direction KTS MPH feet Rate Location/Type
11:34AM 35.0447 -106.5739 95° East 194 223 6,400  Level Albuquerque Center
11:34AM 35.0433 -106.5533 95° East 189 217 7,100 1,800 Climbing Albuquerque Center
11:35AM 35.0664 -106.5033 61° Northeast 222 255 8,600 1,620 Climbing Albuquerque Center
11:35AM 35.0872 -106.5022 North 236 272 9,100 1,620 Climbing Albuquerque Center
11:36AM 35.1044 -106.5756 286° West 239 275 10,800 1,500 Climbing Albuquerque Center
11:37AM 35.1050 -106.6772 270° West 271 312 12,200 1,800 Climbing Albuquerque Center
11:38AM 35.1067 -106.7944 271° West 334 384 14,600 2,640 Climbing Albuquerque Center
11:39AM 35.1078 -106.9358 271° West 362 417 17,700 2,760 Climbing Albuquerque Center
11:40AM 35.1078 -107.0611 270° West 361 415 20,400 2,400 Climbing Albuquerque Center
11:41AM 35.1100 -107.1833 271° West 371 427 22,700 2,040 Climbing Albuquerque Center
11:42AM 35.1081 -107.3153 269° West 384 442 24,700 1,860 Climbing Albuquerque Center
11:44AM 35.0972 -107.4483 264° West 391 450 26,600 1,560 Climbing Albuquerque Center
11:45AM 35.0856 -107.6092 265° West 397 457 28,000 660 Climbing Albuquerque Center
11:46AM 35.0753 -107.7461 265° West 402 463 28,000 240 Level Albuquerque Center
11:47AM 35.0656 -107.8914 265° West 402 463 28,600 900 Climbing Albuquerque Center
11:48AM 35.0558 -108.0247 265° West 408 470 29,900 1,200 Climbing Albuquerque Center
11:49AM 35.0442 -108.1831 265° West 415 478 31,200 1,140 Climbing Albuquerque Center
11:50AM 35.0333 -108.3222 265° West 424 488 32,300 1,320 Climbing Albuquerque Center
11:51AM 35.0214 -108.4814 265° West 423 487 34,000 780 Climbing Albuquerque Center
11:52AM 35.0106 -108.6144 264° West 415 478 34,000  Level Albuquerque Center
11:53AM 34.9983 -108.7697 265° West 412 474 34,000  Level Albuquerque Center
11:54AM 34.9881 -108.9033 265° West 412 474 34,000  Level Albuquerque Center
11:55AM 34.9761 -109.0364 264° West 412 474 34,000 360 Level Albuquerque Center
11:56AM 34.9644 -109.1939 265° West 416 479 34,800 960 Climbing Albuquerque Center
11:57AM 34.9561 -109.3264 266° West 412 474 36,000 540 Climbing Albuquerque Center
11:58AM 34.9447 -109.4789 265° West 406 467 36,000  Level Albuquerque Center
11:59AM 34.9356 -109.6111 265° West 406 467 36,000  Level Albuquerque Center
12:00PM 34.9244 -109.7675 265° West 411 473 36,000  Level Albuquerque Center
12:01PM 34.9147 -109.9028 265° West 415 478 36,000  Level Albuquerque Center
12:02PM 34.9047 -110.0622 266° West 420 483 36,000  Level Albuquerque Center
12:03PM 34.8958 -110.2003 266° West 423 487 36,000  Level Albuquerque Center
12:04PM 34.8856 -110.3350 265° West 420 483 36,000  Level Albuquerque Center
12:05PM 34.8725 -110.4903 264° West 416 479 36,000  Level Albuquerque Center
12:06PM 34.8608 -110.6244 264° West 416 479 36,000  Level Albuquerque Center
12:07PM 34.8475 -110.7767 264° West 420 483 36,000  Level Albuquerque Center
12:08PM 34.8328 -110.9161 263° West 420 483 36,000  Level Albuquerque Center
12:09PM 34.8125 -111.0561 260° West 422 486 36,000  Level Albuquerque Center
12:11PM 34.7736 -111.3733 262° West 431 496 36,000  Level Albuquerque Center
12:12PM 34.7544 -111.5161 261° West 430 495 36,000  Level Albuquerque Center
12:13PM 34.7356 -111.6594 261° West 431 496 36,000  Level Albuquerque Center
12:15PM 34.7147 -111.8025 260° West 433 498 36,000  Level Albuquerque Center
12:16PM 34.6956 -111.9456 261° West 432 497 36,000  Level Albuquerque Center
12:17PM 34.6758 -112.0889 261° West 433 498 36,000  Level Albuquerque Center
12:18PM 34.6586 -112.2631 263° West 435 501 36,000  Level Albuquerque Center
12:19PM 34.6503 -112.4122 266° West 434 499 36,000  Level Albuquerque Center
12:20PM 34.6403 -112.5581 265° West 434 499 36,000  Level Albuquerque Center
12:21PM 34.6300 -112.7058 265° West 437 503 36,000  Level Albuquerque Center
12:22PM 34.6194 -112.8522 265° West 436 502 36,000  Level Albuquerque Center
12:23PM 34.6097 -113.0000 265° West 438 504 36,000  Level Albuquerque Center
12:24PM 34.5961 -113.1775 265° West 441 507 36,000  Level Albuquerque Center
12:25PM 34.5853 -113.3256 265° West 441 507 36,000  Level Albuquerque Center
12:26PM 34.5750 -113.4753 265° West 442 509 36,000  Level Albuquerque Center
12:27PM 34.5633 -113.6244 265° West 444 511 36,000  Level Albuquerque Center
12:28PM 34.5386 -113.7625 258° West 434 499 36,000  Level Albuquerque Center
12:29PM 34.5033 -113.9342 256° West 432 497 36,000  Level Albuquerque Center
12:30PM 34.4725 -114.0808 256° West 437 503 36,000  Level Albuquerque Center
12:31PM 34.4422 -114.2272 256° West 441 507 36,000  Level Albuquerque Center
12:32PM 34.4114 -114.3744 256° West 444 511 36,000  Level Albuquerque Center
12:33PM 34.3808 -114.5219 256° West 447 514 36,000 -60 Level Albuquerque Center
12:35PM 34.3353 -114.7283 255° West  Level FlightAware Approximate
12:39PM 34.1783 -115.4700 269° West 459 528 35,900  Level Los Angeles Center
12:41PM 34.1519 -115.6292 259° West  Level Estimated
12:42PM 34.1023 -115.7566 255° West  Level FlightAware Approximate
12:42PM 34.1150 -115.7689 259° West 463 533 35,900  Level Los Angeles Center
12:43PM 34.0980 -115.9084 269° West  Level FlightAware Approximate
12:43PM 34.1105 -115.9209 268° West  Level FlightAware Approximate
12:44PM 34.0957 -116.0604 269° West  Level FlightAware Approximate
12:44PM 34.1072 -116.0811 268° West 466 536 35,900  Level Los Angeles Center
12:45PM 34.0933 -116.2125 269° West  Level FlightAware Approximate
12:46PM 34.0969 -116.3749 268° West  Level FlightAware Approximate
12:53PM 34.0270 -117.4344 262° West  Level FlightAware Approximate
12:54PM 34.0083 -117.5847 262° West  Level FlightAware Approximate
12:55PM 33.9895 -117.7349 261° West  Level FlightAware Approximate
12:55PM 33.9869 -117.8956 270° West 485 558 36,000  Level Los Angeles Center
12:56PM 33.9728 -117.8855 263° West  Level FlightAware Approximate
12:56PM 33.9711 -118.0556 263° West 485 558 36,000  Level Los Angeles Center
12:57PM 33.9571 -118.0362 263° West  Level FlightAware Approximate
12:57PM 33.9528 -118.2444 263° West 480 552 36,000  Level Los Angeles Center
12:58PM 33.9412 -118.1869 263° West  Level FlightAware Approximate
12:58PM 33.9383 -118.4011 264° West 480 552 36,000  Level Los Angeles Center
12:59PM 33.9252 -118.3376 263° West  Level FlightAware Approximate
12:59PM 33.9617 -118.5622 280° West 500 575 36,000  Level Los Angeles Center
01:00PM 33.9340 -118.4857 287° West  Level FlightAware Approximate
01:00PM 33.9969 -118.7231 285° West 502 578 36,000  Level Los Angeles Center
01:01PM 33.9667 -118.6319 270° West  Level FlightAware Approximate
01:01PM 34.0319 -118.8847 285° West 501 577 36,000  Level Los Angeles Center
01:02PM 34.0669 -119.0828 282° West 504 580 36,000  Level Los Angeles Center
01:03PM 34.0936 -119.2469 281° West 502 578 36,000  Level Los Angeles Center
01:04PM 34.1247 -119.4125 283° West 507 583 36,000  Level Los Angeles Center
01:05PM 34.1539 -119.5781 282° West 508 585 36,000  Level Los Angeles Center
01:06PM 34.1772 -119.7106 282° West 508 585 36,000  Level Los Angeles Center
01:07PM 34.2181 -119.9444 282° West 508 585 36,000  Level Los Angeles Center
01:08PM 34.2450 -120.1114 281° West 509 586 36,000  Level Los Angeles Center
01:09PM 34.2194 -120.2758 259° West 507 583 36,000 -60 Level Los Angeles Center
01:11PM 34.1681 -120.4878 254° West 503 579 35,900  Descending Los Angeles Center
01:12PM 34.1183 -120.6825 253° West 506 582 36,000  Climbing Los Angeles Center
01:13PM 34.0769 -120.8442 253° West 504 580 36,000 -60 Level Los Angeles Center
01:14PM 34.0356 -121.0067 253° West 507 583 35,900  Descending Los Angeles Center
01:16PM 33.9784 -121.2248 253° West  Level FlightAware Approximate
01:16PM 33.9481 -121.3419 253° West 513 590 36,000  Level Los Angeles Center
01:17PM 33.9156 -121.4703 253° West 506 582 36,000  Level Los Angeles Center
01:18PM 33.8583 -121.6889 253° West 510 587 36,000 -60 Level Los Angeles Center
01:19PM 33.8142 -121.8511 252° West 509 586 35,900 -60 Descending Los Angeles Center
01:20PM 33.7708 -122.0150 252° West 514 592 35,900  Level Los Angeles Center
01:21PM 33.7258 -122.1786 252° West 515 593 36,000  Climbing Los Angeles Center
01:22PM 33.6728 -122.3761 252° West 517 595 36,000  Level Los Angeles Center
01:23PM 33.6278 -122.5386 252° West 516 594 36,000  Level Los Angeles Center
01:25PM 33.5801 -122.7088 251° West  Level FlightAware Approximate
01:32PM 33.2938 -123.7122 251° West  Level FlightAware Approximate
01:33PM 33.2525 -123.8550 251° West  Level FlightAware Approximate
01:34PM 33.2111 -123.9978 251° West  Level FlightAware Approximate
01:35PM 33.1694 -124.1404 251° West  Level FlightAware Approximate
01:36PM 33.1277 -124.2829 251° West  Level FlightAware Approximate
01:36PM 33.0667 -124.5167 255° West 512 589 36,000  Level Oakland Oceanic (ODAPS)
01:37PM 33.0857 -124.4253 251° West  Level FlightAware Approximate
01:38PM 33.0522 -124.5673 251° West  Level FlightAware Approximate
01:39PM 33.0115 -124.7100 251° West  Level FlightAware Approximate
01:40PM 32.9765 -124.8547 255° West  Level FlightAware Approximate
01:41PM 32.9437 -125.0002 255° West  Level FlightAware Approximate
01:41PM 32.8667 -125.4167 255° West 510 587 36,000  Level Oakland Oceanic (ODAPS)
01:42PM 32.8414 -125.5070 255° West 512 589 36,000  Level FlightAware Transoceanic
01:43PM 32.8031 -125.6716 254° West 512 589 36,000  Level FlightAware Transoceanic
01:44PM 32.7645 -125.8360 254° West 512 589 36,000  Level FlightAware Transoceanic
01:45PM 32.7258 -126.0003 254° West 512 589 36,000  Level FlightAware Transoceanic
01:46PM 32.6869 -126.1644 254° West 512 589 36,000  Level FlightAware Transoceanic
01:47PM 32.6362 -126.3919 254° West 510 587 36,000  Level FlightAware Transoceanic
01:48PM 32.5971 -126.5539 254° West 510 587 36,000  Level FlightAware Transoceanic
01:49PM 32.5578 -126.7158 254° West 510 587 36,000  Level FlightAware Transoceanic
01:50PM 32.5182 -126.8775 254° West 510 587 36,000  Level FlightAware Transoceanic
01:51PM 32.4784 -127.0392 254° West 510 587 36,000  Level FlightAware Transoceanic
01:52PM 32.4385 -127.2006 254° West 510 587 36,000  Level FlightAware Transoceanic
01:53PM 32.3983 -127.3620 254° West 510 587 36,000  Level FlightAware Transoceanic
01:54PM 32.3579 -127.5231 253° West 510 587 36,000  Level FlightAware Transoceanic
01:55PM 32.3173 -127.6842 253° West 510 587 36,000  Level FlightAware Transoceanic
01:56PM 32.2766 -127.8451 253° West 510 587 36,000  Level FlightAware Transoceanic
01:57PM 32.2356 -128.0058 253° West 510 587 36,000  Level FlightAware Transoceanic
01:58PM 32.1944 -128.1664 253° West 510 587 36,000  Level FlightAware Transoceanic
01:59PM 32.1530 -128.3269 253° West 510 587 36,000  Level FlightAware Transoceanic
02:00PM 32.1114 -128.4872 253° West 510 587 36,000  Level FlightAware Transoceanic
02:01PM 32.0696 -128.6474 253° West 510 587 36,000  Level FlightAware Transoceanic
02:02PM 32.0276 -128.8074 253° West 510 587 36,000  Level FlightAware Transoceanic
02:03PM 31.9854 -128.9672 253° West 510 587 36,000  Level FlightAware Transoceanic
02:04PM 31.9430 -129.1270 253° West 510 587 36,000  Level FlightAware Transoceanic
02:05PM 31.9004 -129.2865 252° West 510 587 36,000  Level FlightAware Transoceanic
02:06PM 31.8576 -129.4460 252° West 510 587 36,000  Level FlightAware Transoceanic
02:07PM 31.8146 -129.6053 252° West 510 587 36,000  Level FlightAware Transoceanic
02:08PM 31.7714 -129.7644 252° West 510 587 36,000  Level FlightAware Transoceanic
02:09PM 31.7280 -129.9234 252° West 510 587 36,000  Level FlightAware Transoceanic
02:09PM 31.7500 -129.8333 252° West 498 573 36,000  Level Oakland Oceanic (ODAPS)
02:10PM 31.6844 -130.0822 252° West 510 587 36,000  Level FlightAware Transoceanic
02:11PM 31.6406 -130.2409 252° West 510 587 36,000  Level FlightAware Transoceanic
02:12PM 31.5966 -130.3994 252° West 510 587 36,000  Level FlightAware Transoceanic
02:13PM 31.5525 -130.5578 252° West 510 587 36,000  Level FlightAware Transoceanic
02:14PM 31.5081 -130.7160 252° West 510 587 36,000  Level FlightAware Transoceanic
02:15PM 31.4949 -130.7572 252° West 498 573 36,000  Level FlightAware Transoceanic
02:16PM 31.4518 -130.9106 252° West 498 573 36,000  Level FlightAware Transoceanic
02:17PM 31.4084 -131.0640 252° West 498 573 36,000  Level FlightAware Transoceanic
02:18PM 31.3649 -131.2172 252° West 498 573 36,000  Level FlightAware Transoceanic
02:19PM 31.3212 -131.3702 251° West 498 573 36,000  Level FlightAware Transoceanic
02:20PM 31.2773 -131.5231 251° West 498 573 36,000  Level FlightAware Transoceanic
02:21PM 31.2333 -131.6759 251° West 498 573 36,000  Level FlightAware Transoceanic
02:22PM 31.1890 -131.8285 251° West 498 573 36,000  Level FlightAware Transoceanic
02:23PM 31.1446 -131.9810 251° West 498 573 36,000  Level FlightAware Transoceanic
02:23PM 31.1500 -131.9500 252° West 490 564 36,000  Level Oakland Oceanic (ODAPS)
02:24PM 31.1000 -132.1333 251° West 498 573 36,000  Level FlightAware Transoceanic
02:24PM 31.1000 -132.1333 251° West 491 565 36,000  Level Oakland Oceanic (ODAPS)
02:25PM 31.0560 -132.2828 251° West 498 573 36,000  Level FlightAware Transoceanic
02:26PM 31.0119 -132.4321 251° West 498 573 36,000  Level FlightAware Transoceanic
02:27PM 30.9676 -132.5812 251° West 498 573 36,000  Level FlightAware Transoceanic
02:28PM 30.9231 -132.7302 251° West 498 573 36,000  Level FlightAware Transoceanic
02:29PM 30.8828 -132.8645 251° West 490 564 36,000  Level FlightAware Transoceanic
02:30PM 30.8336 -133.0279 251° West 491 565 36,000  Level FlightAware Transoceanic
02:31PM 30.7886 -133.1765 251° West 491 565 36,000  Level FlightAware Transoceanic
02:32PM 30.7435 -133.3249 250° West 491 565 36,000  Level FlightAware Transoceanic
02:33PM 30.6982 -133.4733 250° West 491 565 36,000  Level FlightAware Transoceanic
02:34PM 30.6527 -133.6214 250° West 491 565 36,000  Level FlightAware Transoceanic
02:35PM 30.6070 -133.7695 250° West 491 565 36,000  Level FlightAware Transoceanic
02:36PM 30.5611 -133.9174 250° West 491 565 36,000 1,020 Level FlightAware Transoceanic
02:36PM 30.5333 -134.0167 250° West 484 557 38,000  Climbing Oakland Oceanic (ODAPS)
02:37PM 30.5152 -134.0651 250° West 491 565 36,000 -1,920 Descending FlightAware Transoceanic
02:38PM 30.4690 -134.2128 250° West 491 565 36,000  Level FlightAware Transoceanic
02:39PM 30.4226 -134.3602 250° West 491 565 36,000  Level FlightAware Transoceanic
02:40PM 30.3762 -134.5076 250° West 491 565 36,000  Level FlightAware Transoceanic
02:41PM 30.3295 -134.6548 250° West 491 565 36,000  Level FlightAware Transoceanic
02:42PM 30.2827 -134.8019 250° West 491 565 36,000 960 Level FlightAware Transoceanic
02:43PM 30.2512 -134.9084 250° West 484 557 38,000 960 Climbing FlightAware Transoceanic
02:44PM 30.2036 -135.0565 250° West 484 557 38,000  Level FlightAware Transoceanic
02:45PM 30.1558 -135.2045 249° West 484 557 38,000  Level FlightAware Transoceanic
02:46PM 30.1078 -135.3524 249° West 484 557 38,000  Level FlightAware Transoceanic
02:47PM 30.0597 -135.5001 249° West 484 557 38,000  Level FlightAware Transoceanic
02:48PM 30.0114 -135.6476 249° West 484 557 38,000  Level FlightAware Transoceanic
02:49PM 29.9630 -135.7950 249° West 484 557 38,000  Level FlightAware Transoceanic
02:50PM 29.9144 -135.9423 249° West 484 557 38,000  Level FlightAware Transoceanic
02:50PM 29.8833 -136.0500 249° West 480 552 38,000  Level Oakland Oceanic (ODAPS)
02:51PM 29.8656 -136.0894 249° West 484 557 38,000  Level FlightAware Transoceanic
02:52PM 29.8167 -136.2364 249° West 484 557 38,000  Level FlightAware Transoceanic
02:53PM 29.7676 -136.3832 249° West 484 557 38,000  Level FlightAware Transoceanic
02:54PM 29.7184 -136.5299 249° West 484 557 38,000  Level FlightAware Transoceanic
02:55PM 29.6689 -136.6764 249° West 484 557 38,000  Level FlightAware Transoceanic
02:56PM 29.6194 -136.8228 249° West 484 557 38,000  Level FlightAware Transoceanic
02:57PM 29.5829 -136.9402 249° West 480 552 38,000  Level FlightAware Transoceanic
02:58PM 29.5323 -137.0880 248° West 480 552 38,000  Level FlightAware Transoceanic
02:59PM 29.4814 -137.2357 248° West 480 552 38,000  Level FlightAware Transoceanic
03:00PM 29.4305 -137.3833 248° West 480 552 38,000  Level FlightAware Transoceanic
03:01PM 29.3793 -137.5307 248° West 480 552 38,000  Level FlightAware Transoceanic
03:02PM 29.3280 -137.6779 248° West 480 552 38,000  Level FlightAware Transoceanic
03:03PM 29.2766 -137.8250 248° West 480 552 38,000  Level FlightAware Transoceanic
03:04PM 29.2250 -137.9720 248° West 480 552 38,000  Level FlightAware Transoceanic
03:04PM 29.2000 -138.0333 248° West 483 556 38,000  Level Oakland Oceanic (ODAPS)
03:05PM 29.1732 -138.1188 248° West 480 552 38,000  Level FlightAware Transoceanic
03:06PM 29.1212 -138.2654 248° West 480 552 38,000  Level FlightAware Transoceanic
03:07PM 29.0691 -138.4119 248° West 480 552 38,000  Level FlightAware Transoceanic
03:08PM 29.0169 -138.5583 248° West 480 552 38,000  Level FlightAware Transoceanic
03:09PM 28.9645 -138.7045 248° West 480 552 38,000  Level FlightAware Transoceanic
03:10PM 28.9119 -138.8506 248° West 480 552 38,000  Level FlightAware Transoceanic
03:11PM 28.8683 -138.9682 248° West 483 556 38,000  Level FlightAware Transoceanic
03:12PM 28.8124 -139.1234 248° West 483 556 38,000  Level FlightAware Transoceanic
03:13PM 28.7563 -139.2784 248° West 483 556 38,000  Level FlightAware Transoceanic
03:14PM 28.7000 -139.4333 247° West 483 556 38,000  Level FlightAware Transoceanic
03:14PM 28.7000 -139.4333 247° West 477 549 38,000  Level Oakland Oceanic (ODAPS)
03:15PM 28.6493 -139.5712 247° West 483 556 38,000  Level FlightAware Transoceanic
03:16PM 28.5984 -139.7090 247° West 483 556 38,000  Level FlightAware Transoceanic
03:17PM 28.5473 -139.8466 247° West 483 556 38,000  Level FlightAware Transoceanic
03:18PM 28.4962 -139.9842 247° West 483 556 38,000  Level FlightAware Transoceanic
03:18PM 28.5000 -139.9833 247° West 477 549 38,000  Level Oakland Oceanic (ODAPS)
03:19PM 28.4449 -140.1215 247° West 483 556 38,000  Level FlightAware Transoceanic
03:20PM 28.3934 -140.2588 247° West 477 549 38,000  Level FlightAware Transoceanic
03:21PM 28.3418 -140.3959 247° West 477 549 38,000  Level FlightAware Transoceanic
03:22PM 28.2901 -140.5329 247° West 477 549 38,000  Level FlightAware Transoceanic
03:23PM 28.2383 -140.6697 247° West 477 549 38,000  Level FlightAware Transoceanic
03:24PM 28.1896 -140.8057 247° West 477 549 38,000  Level FlightAware Transoceanic
03:25PM 28.1374 -140.9423 247° West 477 549 38,000  Level FlightAware Transoceanic
03:26PM 28.0851 -141.0788 246° West 477 549 38,000  Level FlightAware Transoceanic
03:27PM 28.0326 -141.2151 246° West 477 549 38,000  Level FlightAware Transoceanic
03:28PM 27.9800 -141.3513 246° West 477 549 38,000  Level FlightAware Transoceanic
03:29PM 27.9272 -141.4874 246° West 477 549 38,000  Level FlightAware Transoceanic
03:30PM 27.8743 -141.6233 246° West 477 549 38,000  Level FlightAware Transoceanic
03:31PM 27.8213 -141.7591 246° West 477 549 38,000  Level FlightAware Transoceanic
03:32PM 27.7682 -141.8947 246° West 477 549 38,000  Level FlightAware Transoceanic
03:32PM 27.7667 -141.8833 246° West 473 544 38,000  Level Oakland Oceanic (ODAPS)
03:33PM 27.7149 -142.0303 246° West 477 549 38,000  Level FlightAware Transoceanic
03:34PM 27.6615 -142.1657 246° West 477 549 38,000  Level FlightAware Transoceanic
03:35PM 27.6080 -142.3009 246° West 477 549 38,000  Level FlightAware Transoceanic
03:36PM 27.5543 -142.4361 246° West 477 549 38,000  Level FlightAware Transoceanic
03:37PM 27.5005 -142.5711 246° West 477 549 38,000  Level FlightAware Transoceanic
03:38PM 27.4454 -142.6967 246° West 473 544 38,000  Level FlightAware Transoceanic
03:39PM 27.3914 -142.8318 246° West 473 544 38,000  Level FlightAware Transoceanic
03:40PM 27.3372 -142.9668 246° West 473 544 38,000  Level FlightAware Transoceanic
03:41PM 27.2829 -143.1016 246° West 473 544 38,000  Level FlightAware Transoceanic
03:42PM 27.2286 -143.2363 246° West 473 544 38,000  Level FlightAware Transoceanic
03:43PM 27.1740 -143.3709 245° Southwest 473 544 38,000  Level FlightAware Transoceanic
03:44PM 27.1194 -143.5053 245° Southwest 473 544 38,000  Level FlightAware Transoceanic
03:45PM 27.0646 -143.6396 245° Southwest 473 544 38,000  Level FlightAware Transoceanic
03:46PM 27.0097 -143.7738 245° Southwest 473 544 38,000  Level FlightAware Transoceanic
03:46PM 27.0333 -143.7333 245° Southwest 471 542 38,000  Level Oakland Oceanic (ODAPS)
03:47PM 26.9547 -143.9078 245° Southwest 473 544 38,000  Level FlightAware Transoceanic
03:48PM 26.8995 -144.0417 245° Southwest 473 544 38,000  Level FlightAware Transoceanic
03:49PM 26.8442 -144.1755 245° Southwest 473 544 38,000  Level FlightAware Transoceanic
03:50PM 26.7888 -144.3092 245° Southwest 473 544 38,000  Level FlightAware Transoceanic
03:51PM 26.7332 -144.4427 245° Southwest 473 544 38,000  Level FlightAware Transoceanic
03:52PM 26.6935 -144.5493 245° Southwest 471 542 38,000  Level FlightAware Transoceanic
03:53PM 26.6364 -144.6848 245° Southwest 471 542 38,000  Level FlightAware Transoceanic
03:54PM 26.5792 -144.8202 245° Southwest 471 542 38,000  Level FlightAware Transoceanic
03:55PM 26.5218 -144.9555 245° Southwest 471 542 38,000  Level FlightAware Transoceanic
03:56PM 26.4643 -145.0906 245° Southwest 471 542 38,000  Level FlightAware Transoceanic
03:57PM 26.4067 -145.2256 244° Southwest 471 542 38,000  Level FlightAware Transoceanic
03:58PM 26.3490 -145.3604 244° Southwest 471 542 38,000  Level FlightAware Transoceanic
03:59PM 26.2912 -145.4951 244° Southwest 471 542 38,000  Level FlightAware Transoceanic
04:00PM 26.2332 -145.6297 244° Southwest 471 542 38,000  Level FlightAware Transoceanic
04:00PM 26.2833 -145.5500 243° Southwest 457 526 38,000  Level Oakland Oceanic (ODAPS)
04:01PM 26.1751 -145.7641 244° Southwest 471 542 38,000  Level FlightAware Transoceanic
04:02PM 26.1168 -145.8985 244° Southwest 471 542 38,000  Level FlightAware Transoceanic
04:03PM 26.0585 -146.0326 244° Southwest 471 542 38,000  Level FlightAware Transoceanic
04:04PM 26.0000 -146.1667 244° Southwest 471 542 38,000  Level FlightAware Transoceanic
04:05PM 25.9442 -146.2955 244° Southwest 471 542 38,000  Level FlightAware Transoceanic
04:05PM 26.0000 -146.1667 244° Southwest 462 532 38,000  Level Oakland Oceanic (ODAPS)
04:06PM 25.9442 -146.2955 244° Southwest 457 526 38,000  Level FlightAware Transoceanic
04:07PM 25.8883 -146.4241 244° Southwest 457 526 38,000  Level FlightAware Transoceanic
04:08PM 25.8322 -146.5527 244° Southwest 457 526 38,000  Level FlightAware Transoceanic
04:09PM 25.7761 -146.6811 244° Southwest 457 526 38,000  Level FlightAware Transoceanic
04:10PM 25.7198 -146.8094 244° Southwest 457 526 38,000  Level FlightAware Transoceanic
04:11PM 25.6635 -146.9376 244° Southwest 462 532 38,000  Level FlightAware Transoceanic
04:12PM 25.6070 -147.0656 244° Southwest 462 532 38,000  Level FlightAware Transoceanic
04:13PM 25.5504 -147.1936 244° Southwest 462 532 38,000  Level FlightAware Transoceanic
04:14PM 25.4937 -147.3214 244° Southwest 462 532 38,000  Level FlightAware Transoceanic
04:14PM 25.5000 -147.3167 244° Southwest 462 532 38,000  Level Oakland Oceanic (ODAPS)
04:15PM 25.4368 -147.4491 244° Southwest 462 532 38,000  Level FlightAware Transoceanic
04:16PM 25.3799 -147.5767 244° Southwest 462 532 38,000  Level FlightAware Transoceanic
04:17PM 25.3229 -147.7041 244° Southwest 462 532 38,000  Level FlightAware Transoceanic
04:18PM 25.2657 -147.8315 244° Southwest 462 532 38,000  Level FlightAware Transoceanic
04:19PM 25.2085 -147.9587 244° Southwest 462 532 38,000  Level FlightAware Transoceanic
04:20PM 25.1565 -148.0818 243° Southwest 462 532 38,000  Level FlightAware Transoceanic
04:21PM 25.0989 -148.2089 243° Southwest 462 532 38,000  Level FlightAware Transoceanic
04:22PM 25.0412 -148.3358 243° Southwest 462 532 38,000  Level FlightAware Transoceanic
04:23PM 24.9834 -148.4627 243° Southwest 462 532 38,000  Level FlightAware Transoceanic
04:24PM 24.9254 -148.5894 243° Southwest 462 532 38,000  Level FlightAware Transoceanic
04:25PM 24.8674 -148.7161 243° Southwest 462 532 38,000  Level FlightAware Transoceanic
04:26PM 24.8092 -148.8426 243° Southwest 462 532 38,000  Level FlightAware Transoceanic
04:27PM 24.7509 -148.9689 243° Southwest 462 532 38,000  Level FlightAware Transoceanic
04:28PM 24.7167 -149.0500 243° Southwest 458 527 38,000  Level Oakland Oceanic (ODAPS)
04:28PM 24.6926 -149.0952 243° Southwest 462 532 38,000  Level FlightAware Transoceanic
04:29PM 24.6341 -149.2213 243° Southwest 462 532 38,000  Level FlightAware Transoceanic
04:30PM 24.5755 -149.3474 243° Southwest 462 532 38,000  Level FlightAware Transoceanic
04:31PM 24.5168 -149.4733 243° Southwest 462 532 38,000  Level FlightAware Transoceanic
04:32PM 24.4580 -149.5991 243° Southwest 462 532 38,000  Level FlightAware Transoceanic
04:33PM 24.3991 -149.7247 243° Southwest 462 532 38,000  Level FlightAware Transoceanic
04:34PM 24.3592 -149.8150 243° Southwest 458 527 38,000  Level FlightAware Transoceanic
04:35PM 24.2993 -149.9421 243° Southwest 458 527 38,000  Level FlightAware Transoceanic
04:36PM 24.2392 -150.0690 243° Southwest 458 527 38,000  Level FlightAware Transoceanic
04:37PM 24.1791 -150.1959 242° Southwest 458 527 38,000  Level FlightAware Transoceanic
04:38PM 24.1188 -150.3226 242° Southwest 458 527 38,000  Level FlightAware Transoceanic
04:39PM 24.0585 -150.4492 242° Southwest 458 527 38,000  Level FlightAware Transoceanic
04:40PM 23.9980 -150.5757 242° Southwest 458 527 38,000  Level FlightAware Transoceanic
04:41PM 23.9374 -150.7020 242° Southwest 458 527 38,000  Level FlightAware Transoceanic
04:41PM 23.9167 -150.7667 242° Southwest 456 525 38,000  Level Oakland Oceanic (ODAPS)
04:42PM 23.8768 -150.8283 242° Southwest 458 527 38,000  Level FlightAware Transoceanic
04:43PM 23.8160 -150.9544 242° Southwest 458 527 38,000  Level FlightAware Transoceanic
04:44PM 23.7551 -151.0804 242° Southwest 458 527 38,000  Level FlightAware Transoceanic
04:45PM 23.6941 -151.2063 242° Southwest 458 527 38,000  Level FlightAware Transoceanic
04:46PM 23.6330 -151.3320 242° Southwest 458 527 38,000  Level FlightAware Transoceanic
04:47PM 23.5718 -151.4577 242° Southwest 458 527 38,000  Level FlightAware Transoceanic
04:48PM 23.5335 -151.5483 242° Southwest 456 525 38,000  Level FlightAware Transoceanic
04:49PM 23.4693 -151.6781 242° Southwest 456 525 38,000  Level FlightAware Transoceanic
04:50PM 23.4049 -151.8078 242° Southwest 456 525 38,000  Level FlightAware Transoceanic
04:51PM 23.3405 -151.9374 242° Southwest 456 525 38,000  Level FlightAware Transoceanic
04:52PM 23.2759 -152.0668 241° Southwest 456 525 38,000  Level FlightAware Transoceanic
04:53PM 23.2113 -152.1961 241° Southwest 456 525 38,000  Level FlightAware Transoceanic
04:54PM 23.1465 -152.3253 241° Southwest 456 525 38,000  Level FlightAware Transoceanic
04:55PM 23.0816 -152.4544 241° Southwest 456 525 38,000  Level FlightAware Transoceanic
04:56PM 23.0167 -152.5833 242° Southwest 456 525 38,000  Level FlightAware Transoceanic
04:57PM 22.9580 -152.7020 242° Southwest 456 525 38,000  Level FlightAware Transoceanic
04:57PM 22.9500 -152.7167 241° Southwest 490 564 38,000  Level Honolulu Center
04:58PM 22.8993 -152.8206 242° Southwest 456 525 38,000  Level FlightAware Transoceanic
04:58PM 22.8833 -152.8333 238° Southwest 460 529 38,000  Level Honolulu Center
04:59PM 22.8404 -152.9391 242° Southwest 456 525 38,000  Level FlightAware Transoceanic
04:59PM 22.8000 -152.9333 228° Southwest 460 529 38,000  Level Honolulu Center
05:00PM 22.7815 -153.0575 242° Southwest 456 525 38,000  Level FlightAware Transoceanic
05:00PM 22.7167 -153.0167 223° Southwest 470 541 38,000  Level Honolulu Center
05:01PM 22.7225 -153.1758 242° Southwest 456 525 38,000  Level FlightAware Transoceanic
05:01PM 22.6333 -153.1167 228° Southwest 460 529 38,000  Level Honolulu Center
05:02PM 22.6634 -153.2939 242° Southwest 456 525 38,000  Level FlightAware Transoceanic
05:02PM 22.5333 -153.2333 227° Southwest 480 552 38,000  Level Honolulu Center
05:03PM 22.6042 -153.4120 241° Southwest 456 525 38,000  Level FlightAware Transoceanic
05:03PM 22.4500 -153.3333 228° Southwest 440 506 38,000  Level Honolulu Center
05:04PM 22.3667 -153.4333 228° Southwest 420 483 38,000  Level Honolulu Center
05:05PM 22.2833 -153.5167 223° Southwest 420 483 38,000  Level Honolulu Center
05:06PM 22.1833 -153.6000 218° Southwest 410 472 38,000  Level Honolulu Center
05:07PM 22.0833 -153.6667 212° Southwest 420 483 38,000  Level Honolulu Center
05:08PM 21.9667 -153.7167 202° Southwest 450 518 38,000  Level Honolulu Center
05:09PM 21.8667 -153.7833 212° Southwest 460 529 38,000 -60 Level Honolulu Center
05:10PM 21.7333 -153.8500 205° Southwest 470 541 37,900 -480 Descending Honolulu Center
05:11PM 21.6333 -153.9167 212° Southwest 460 529 37,100 -2,400 Descending Honolulu Center
05:12PM 21.5167 -153.9833 208° Southwest 470 541 33,100 -3,300 Descending Honolulu Center
05:13PM 21.4000 -154.0500 208° Southwest 470 541 30,500 -2,460 Descending Honolulu Center
05:14PM 21.2833 -154.1167 208° Southwest 450 518 28,200 -2,400 Descending Honolulu Center
05:15PM 21.1667 -154.1833 208° Southwest 450 518 25,800 -2,580 Descending Honolulu Center
05:16PM 21.0667 -154.2333 205° Southwest 440 506 23,100 -2,520 Descending Honolulu Center
05:17PM 20.9667 -154.3000 212° Southwest 410 472 20,800 -2,640 Descending Honolulu Center
05:18PM 20.8667 -154.3500 205° Southwest 410 472 17,800 -2,640 Descending Honolulu Center
05:19PM 20.7667 -154.4167 212° Southwest 400 460 15,600 -2,400 Descending Honolulu Center
05:20PM 20.6833 -154.5000 223° Southwest 400 460 13,100 -1,800 Descending Honolulu Center
05:21PM 20.6000 -154.5833 223° Southwest 390 449 12,000 -600 Descending Honolulu Center
05:22PM 20.5333 -154.6667 230° Southwest 400 460 12,000  Level Honolulu Center
05:23PM 20.4500 -154.7500 223° Southwest 400 460 12,000  Level Honolulu Center
05:24PM 20.3667 -154.8333 223° Southwest 400 460 12,000  Level Honolulu Center
05:25PM 20.2833 -154.9167 223° Southwest 410 472 12,000 60 Level Honolulu Center
05:26PM 20.2000 -155.0000 223° Southwest 400 460 12,200 240 Climbing Honolulu Center
05:27PM 20.1333 -155.1000 235° Southwest 390 449 12,500 300 Climbing Honolulu Center
05:28PM 20.0667 -155.1833 230° Southwest 400 460 12,800 300 Climbing Honolulu Center
05:29PM 20.0167 -155.2833 242° Southwest 390 449 13,200 240 Climbing Honolulu Center
05:30PM 19.9500 -155.4000 239° Southwest 400 460 13,300 240 Climbing Honolulu Center
05:32PM 19.7833 -155.4833 205° Southwest 410 472 14,000 180 Climbing Honolulu Center
05:33PM 19.6833 -155.4000 142° Southeast 420 483 13,900 -660 Descending Honolulu Center
05:34PM 19.6000 -155.3167 137° Southeast 420 483 12,700 -1,320 Descending Honolulu Center
05:35PM 19.5000 -155.2500 148° Southeast 410 472 11,300 -900 Descending Honolulu Center
05:36PM 19.4000 -155.2000 155° Southeast 400 460 11,000 180 Descending Honolulu Center
05:37PM 19.3167 -155.2500 210° Southwest 390 449 11,700 1,200 Climbing Honolulu Center
05:38PM 19.3167 -155.3667 270° West 390 449 13,500 1,500 Climbing Honolulu Center
05:39PM 19.3333 -155.4667 280° West 380 437 14,700 660 Climbing Honolulu Center
05:40PM 19.3500 -155.5833 279° West 400 460 14,900 -300 Climbing Honolulu Center
05:41PM 19.3833 -155.7000 287° West 390 449 14,200 -1,500 Descending Honolulu Center
05:42PM 19.4167 -155.8000 289° West 360 414 12,000 -2,100 Descending Honolulu Center
05:43PM 19.4333 -155.8833 282° West 300 345 10,000 -2,040 Descending Honolulu Center
05:44PM 19.4667 -155.9667 293° West 240 276 7,900 -2,640 Descending Honolulu Center
05:45PM 19.5000 -156.0167 305° West 210 242 4,700 -3,240 Descending Honolulu Center
05:47PM 19.5362 -155.8593 76° East  Level Estimated
05:54PM 19.7203 -155.0485 76° East  Level Estimated
05:55PM 19.7203 -155.0485 358° North  Level Estimated
05:56PM 19.7203 -155.0485 358° North  Level Estimated
05:57PM 19.7203 -155.0485 358° North  Level Estimated
05:58PM 19.7203 -155.0485 358° North  Level Estimated
05:59PM 19.7203 -155.0485 358° North  Level Estimated
06:00PM 19.7203 -155.0485 358° North  Level Estimated
06:01PM 19.7203 -155.0485 358° North  Level Estimated
06:02PM 19.7203 -155.0485 358° North  Level Estimated
06:03PM 19.7203 -155.0485 358° North  Level Estimated
06:04PM 19.7203 -155.0485 358° North  Level Estimated
06:05PM 19.7203 -155.0485 358° North  Level Estimated
06:06PM 19.7203 -155.0485 358° North  Level Estimated
06:07PM 19.7203 -155.0485 358° North  Level Estimated
06:08PM 19.7203 -155.0485 358° North  Level Estimated
06:09PM 19.7203 -155.0485 358° North  Level Estimated
06:10PM 19.7203 -155.0485 358° North  Level Estimated